This is the latest recevied weather packets stored in our database for station/object HS5AU-13. If no packets are shown the sender has not sent any weather packets the latest 1 day(s).
| Time | Temp. | Humidity | Pressure | Rain* | Wind** | Luminosity | Snow |
|---|---|---|---|---|---|---|---|
| 1788623107 | 25° C | 84% | 1008.2 hPa | 0 mm | - | 2 W/m² | - |
| 1788622507 | 25° C | 85% | 1008.2 hPa | 0 mm | - | 2 W/m² | - |
| 1788621907 | 25° C | 86% | 1008.1 hPa | 0 mm | - | 2 W/m² | - |
| 1788621307 | 25° C | 85% | 1008.2 hPa | 0 mm | - | 2 W/m² | - |
| 1788620707 | 25° C | 84% | 1008.3 hPa | 0 mm | - | 2 W/m² | - |
| 1788620107 | 25° C | 84% | 1008 hPa | 0 mm | - | 2 W/m² | - |
| 1788619507 | 25° C | 84% | 1007.7 hPa | 0 mm | - | 2 W/m² | - |
| 1788618908 | 25° C | 83% | 1007.7 hPa | 0 mm | - | 2 W/m² | - |
| 1788618307 | 25° C | 83% | 1007.6 hPa | 0 mm | - | 2 W/m² | - |
| 1788617707 | 25° C | 83% | 1007.2 hPa | 0 mm | - | 2 W/m² | - |
| 1788617107 | 25° C | 93% | 1005.1 hPa | 0 mm | - | 2 W/m² | - |
| 1788616507 | 24.44° C | 92% | 1005.1 hPa | 0 mm | - | 2 W/m² | - |
| 1788615907 | 25° C | 92% | 1005.3 hPa | 0 mm | - | 2 W/m² | - |
| 1788615307 | 25° C | 91% | 1005.4 hPa | 0 mm | - | 2 W/m² | - |
| 1788614707 | 25° C | 91% | 1005.5 hPa | 0 mm | - | 2 W/m² | - |
| 1788614107 | 25° C | 89% | 1006 hPa | 0 mm | - | 2 W/m² | - |
| 1788613507 | 25° C | 89% | 1006 hPa | 0 mm | - | 2 W/m² | - |
| 1788612907 | 25° C | 89% | 1005.5 hPa | 0 mm | - | 2 W/m² | - |
| 1788612307 | 25° C | 92% | 1004.2 hPa | 0 mm | - | 2 W/m² | - |
| 1788611707 | 24.44° C | 97% | 1002.6 hPa | 0 mm | - | 2 W/m² | - |
| 1788611107 | 23.89° C | 99% | 1002 hPa | 0 mm | - | 2 W/m² | - |
| 1788610507 | 23.33° C | 99% | 1001.9 hPa | 0 mm | - | 2 W/m² | - |
| 1788609907 | 23.33° C | 99% | 1001.8 hPa | 0 mm | - | 2 W/m² | - |
| 1788609307 | 23.33° C | 97% | 1002.2 hPa | 0 mm | - | 2 W/m² | - |
| 1788608707 | 23.33° C | 96% | 1002.3 hPa | 0 mm | - | 2 W/m² | - |
* Rain latest hour (hover to see other rain measurements)
** Current wind speed in m/s (hover to see current wind gust speed)